Kampville, Missouri
Current Conditions -  °F | °C
As of 4:54 AM on Sunday 21 Dec 2014 (Local Time) from KSET Reporting Station
Overcast Overcast  
Wind Chill: 34°   Ceiling: 2300
Heat Index: 39°   Visibility: 9mi
Dew Point: 34°   Wind: 7mph
Humidity: 82%   Direction: 140°SE
Pressure: 30.2"   Gusts: NA
Location:  38.8615°N, 90.4548°W
Report Text: KSET 211054Z AUTO 14006KT 9SM OVC023 04/01 A3020 RMK AO2 SLP227 T00390011
Loading
Personal Weather Stations






























Interactive Weather Map New forecast layout! Learn more

10-Day Weather Forecast

Advertisements
Track Severe Weather on mobile